Time;durP1;ratioP1;P1;durP2;ratioP2;P2;SDS_P1;SDS_P2;PMS_P1;PMS_P2;Temp;Humidity;BMP_temperature;BMP_pressure;BME280_temperature;BME280_humidity;BME280_pressure;Samples;Min_cycle;Max_cycle;Signal;HPM_P1;HPM_P2
2023/08/01 00:00:50;;;;;;;6.72;3.72;;;;;;;18.30;100.00;98890.56;10331123;28;20127;-75
2023/08/01 00:05:51;;;;;;;3.88;3.15;;;;;;;18.33;100.00;98865.06;10332769;28;20045;-75
2023/08/01 00:10:53;;;;;;;5.10;3.53;;;;;;;18.24;100.00;98864.47;10328501;28;20046;-71
2023/08/01 00:15:54;;;;;;;6.25;3.47;;;;;;;18.20;100.00;98853.25;10329211;28;20058;-72
2023/08/01 00:21:11;;;;;;;5.05;2.85;;;;;;;18.15;100.00;98838.75;10329487;28;20104;-75
2023/08/01 00:26:12;;;;;;;5.50;3.15;;;;;;;18.16;100.00;98808.09;10330284;28;20064;-73
2023/08/01 00:31:14;;;;;;;4.15;2.90;;;;;;;18.22;100.00;98801.88;10332513;28;20060;-72
2023/08/01 00:36:15;;;;;;;4.50;3.20;;;;;;;18.25;100.00;98784.47;10329262;28;20438;-71
2023/08/01 00:41:17;;;;;;;3.75;3.00;;;;;;;18.23;100.00;98773.91;10330431;28;20054;-73
2023/08/01 00:46:19;;;;;;;4.57;2.83;;;;;;;18.27;100.00;98759.00;10328247;28;20050;-75
2023/08/01 00:51:20;;;;;;;5.47;3.22;;;;;;;18.28;100.00;98751.75;10321029;28;20718;-73
2023/08/01 00:56:21;;;;;;;5.68;3.47;;;;;;;18.23;100.00;98736.22;10330459;28;20053;-72
2023/08/01 01:01:23;;;;;;;4.28;3.13;;;;;;;18.14;100.00;98732.09;10330176;28;20100;-74
2023/08/01 01:06:37;;;;;;;6.60;3.90;;;;;;;18.13;100.00;98730.44;10329264;28;20164;-75
2023/08/01 01:11:39;;;;;;;4.70;3.50;;;;;;;18.05;100.00;98717.19;10328012;28;20571;-75
2023/08/01 01:16:40;;;;;;;5.10;3.33;;;;;;;18.02;100.00;98704.97;10331538;28;20375;-71
2023/08/01 01:21:43;;;;;;;3.80;2.97;;;;;;;18.05;100.00;98706.44;10326749;28;20062;-72
2023/08/01 01:26:46;;;;;;;3.80;3.25;;;;;;;18.08;100.00;98690.69;10329579;28;21436;-74
2023/08/01 01:31:48;;;;;;;3.92;3.22;;;;;;;18.09;100.00;98686.09;10328485;28;20054;-71
2023/08/01 01:36:49;;;;;;;3.20;2.50;;;;;;;18.02;100.00;98664.59;10322705;28;20081;-72
2023/08/01 01:41:51;;;;;;;3.05;2.63;;;;;;;18.02;100.00;98673.50;10329422;28;20054;-71
2023/08/01 01:46:52;;;;;;;3.83;2.72;;;;;;;18.01;100.00;98660.25;10325532;28;20139;-73
2023/08/01 01:51:54;;;;;;;4.13;2.83;;;;;;;18.06;100.00;98665.84;10328917;28;21874;-71
2023/08/01 01:56:57;;;;;;;5.90;3.70;;;;;;;18.01;100.00;98654.84;10329646;28;20500;-75
2023/08/01 02:01:59;;;;;;;5.38;3.58;;;;;;;18.05;100.00;98631.06;10327911;28;20441;-72
2023/08/01 02:07:01;;;;;;;6.35;3.95;;;;;;;18.05;100.00;98642.63;10325908;28;20049;-76
2023/08/01 02:12:04;;;;;;;6.75;3.70;;;;;;;18.05;100.00;98625.66;10325617;28;20061;-71
2023/08/01 02:17:06;;;;;;;4.63;3.33;;;;;;;18.03;100.00;98628.56;10317994;28;20041;-74
2023/08/01 02:22:08;;;;;;;5.38;3.67;;;;;;;17.98;100.00;98604.94;10326060;28;20072;-71
2023/08/01 02:27:09;;;;;;;5.00;3.60;;;;;;;18.05;100.00;98590.66;10324137;28;20191;-72
2023/08/01 02:32:11;;;;;;;8.80;4.07;;;;;;;18.11;100.00;98573.66;10328488;28;20053;-76
2023/08/01 02:37:12;;;;;;;5.32;3.75;;;;;;;18.11;100.00;98560.19;10325808;28;20676;-74
2023/08/01 02:42:14;;;;;;;4.03;3.15;;;;;;;18.07;100.00;98556.28;10327573;28;20505;-71
2023/08/01 02:47:15;;;;;;;4.25;3.85;;;;;;;18.09;100.00;98551.50;10329959;28;20069;-71
2023/08/01 02:52:16;;;;;;;4.80;3.00;;;;;;;18.10;100.00;98553.16;10325108;28;20641;-72
2023/08/01 02:57:18;;;;;;;4.72;3.45;;;;;;;18.02;100.00;98548.84;10324375;28;20154;-71
2023/08/01 03:02:19;;;;;;;5.07;3.97;;;;;;;18.02;100.00;98535.38;10325910;28;20184;-70
2023/08/01 03:07:20;;;;;;;7.57;3.38;;;;;;;17.99;100.00;98536.63;10322704;28;20045;-72
2023/08/01 03:12:22;;;;;;;4.70;3.28;;;;;;;17.98;100.00;98524.19;10326401;28;20132;-75
2023/08/01 03:17:23;;;;;;;4.82;3.60;;;;;;;18.01;100.00;98529.19;10326469;28;20128;-72
2023/08/01 03:22:25;;;;;;;6.53;2.90;;;;;;;18.01;100.00;98533.72;10323638;28;20087;-80
2023/08/01 03:27:26;;;;;;;3.35;3.05;;;;;;;17.99;100.00;98536.63;10325511;28;20053;-73
2023/08/01 03:32:29;;;;;;;5.05;3.20;;;;;;;18.06;100.00;98531.22;10331657;28;20049;-73
2023/08/01 03:37:30;;;;;;;4.93;2.67;;;;;;;18.09;100.00;98546.09;10329474;28;20053;-75
2023/08/01 03:42:31;;;;;;;4.68;2.95;;;;;;;18.13;100.00;98542.75;10334326;28;20934;-74
2023/08/01 03:47:33;;;;;;;4.53;3.00;;;;;;;18.07;100.00;98537.44;10334607;28;20140;-70
2023/08/01 03:52:34;;;;;;;6.03;2.95;;;;;;;17.95;100.00;98502.28;10331202;28;20110;-76
2023/08/01 03:57:36;;;;;;;4.45;3.45;;;;;;;17.92;100.00;98505.41;10332122;28;20509;-74
2023/08/01 04:02:37;;;;;;;5.82;3.30;;;;;;;17.82;100.00;98490.50;10331858;28;20061;-69
2023/08/01 04:07:39;;;;;;;4.03;2.90;;;;;;;17.90;100.00;98481.38;10333607;28;20282;-71
2023/08/01 04:12:42;;;;;;;4.85;2.75;;;;;;;17.90;100.00;98492.16;10334338;28;20483;-72
2023/08/01 04:17:43;;;;;;;5.90;3.42;;;;;;;17.93;100.00;98494.41;10331077;28;20045;-74
2023/08/01 04:22:45;;;;;;;5.40;3.38;;;;;;;17.91;100.00;98490.28;10333883;28;20630;-76
2023/08/01 04:27:46;;;;;;;6.63;3.53;;;;;;;17.96;100.00;98504.75;10329222;28;20053;-73
2023/08/01 04:32:47;;;;;;;6.13;3.25;;;;;;;17.94;100.00;98504.16;10333103;28;20096;-77
2023/08/01 04:37:49;;;;;;;5.65;3.10;;;;;;;17.92;100.00;98498.13;10331074;28;20133;-74
2023/08/01 04:42:51;;;;;;;7.00;3.58;;;;;;;17.96;100.00;98502.06;10329794;28;20050;-73
2023/08/01 04:47:53;;;;;;;3.75;2.70;;;;;;;17.95;100.00;98511.16;10331436;28;20147;-73
2023/08/01 04:52:54;;;;;;;3.47;3.03;;;;;;;17.98;100.00;98524.19;10334122;28;20433;-74
2023/08/01 04:57:56;;;;;;;5.20;2.75;;;;;;;18.00;100.00;98500.59;10330617;28;20049;-75
2023/08/01 05:02:57;;;;;;;4.05;2.05;;;;;;;18.00;100.00;98497.09;10328330;28;20061;-75
2023/08/01 05:07:58;;;;;;;3.50;2.33;;;;;;;18.00;100.00;98464.78;10316016;28;20065;-73
2023/08/01 05:13:00;;;;;;;5.30;2.58;;;;;;;18.04;100.00;98465.16;10327765;28;20062;-72
2023/08/01 05:18:01;;;;;;;3.88;2.35;;;;;;;17.94;100.00;98439.56;10324663;28;20069;-73
2023/08/01 05:23:03;;;;;;;4.38;3.03;;;;;;;17.96;100.00;98464.38;10313415;28;20626;-77
2023/08/01 05:28:05;;;;;;;6.68;3.75;;;;;;;17.94;100.00;98469.16;10315509;28;20501;-76
2023/08/01 05:33:06;;;;;;;2.60;2.10;;;;;;;17.97;100.00;98454.41;10316044;28;20061;-76
2023/08/01 05:38:07;;;;;;;2.72;1.90;;;;;;;17.91;100.00;98448.06;10317816;28;20102;-74
2023/08/01 05:43:09;;;;;;;3.72;2.10;;;;;;;17.80;100.00;98429.84;10319521;28;20062;-74
2023/08/01 05:48:10;;;;;;;2.53;1.92;;;;;;;17.77;100.00;98441.03;10313344;28;20143;-74
2023/08/01 05:53:12;;;;;;;3.70;2.22;;;;;;;17.80;100.00;98433.34;10319453;28;20120;-75
2023/08/01 05:58:13;;;;;;;3.08;1.85;;;;;;;17.59;100.00;98404.91;10321318;28;20046;-75
2023/08/01 06:03:14;;;;;;;4.15;2.45;;;;;;;17.42;100.00;98428.78;10318119;28;20080;-75
2023/08/01 06:08:16;;;;;;;3.42;2.17;;;;;;;17.49;100.00;98444.91;10316720;28;20042;-76
2023/08/01 06:13:18;;;;;;;3.45;2.20;;;;;;;17.58;100.00;98470.53;10319731;28;20135;-74
2023/08/01 06:18:19;;;;;;;4.72;2.83;;;;;;;17.63;100.00;98449.16;10315492;28;20828;-76
2023/08/01 06:23:20;;;;;;;4.30;2.40;;;;;;;17.63;100.00;98481.47;10315570;28;20061;-74
2023/08/01 06:28:22;;;;;;;4.70;3.05;;;;;;;17.71;100.00;98509.16;10315232;28;20054;-78
2023/08/01 06:33:23;;;;;;;4.10;3.15;;;;;;;17.72;100.00;98554.69;10319743;28;20061;-77
2023/08/01 06:38:25;;;;;;;3.22;2.55;;;;;;;17.70;100.00;98558.63;10352658;28;21416;-80
2023/08/01 06:43:26;;;;;;;2.80;1.10;;;;;;;17.86;100.00;98563.56;10339792;28;20050;-78
2023/08/01 06:48:28;;;;;;;1.20;0.60;;;;;;;17.69;100.00;98567.75;10323545;28;20099;-80
2023/08/01 06:53:30;;;;;;;1.07;0.50;;;;;;;17.72;100.00;98581.59;10321828;28;20058;-81
2023/08/01 06:58:32;;;;;;;0.80;0.20;;;;;;;17.80;100.00;98578.69;10318831;28;20160;-79
2023/08/01 07:03:33;;;;;;;0.70;0.35;;;;;;;17.92;100.00;98586.97;10320147;28;20057;-81
2023/08/01 07:08:35;;;;;;;0.63;0.32;;;;;;;18.11;100.00;98605.97;10322635;28;20145;-75
2023/08/01 07:13:36;;;;;;;1.58;0.30;;;;;;;18.17;100.00;98591.66;10328092;28;20065;-75
2023/08/01 07:18:37;;;;;;;0.40;0.20;;;;;;;18.31;100.00;98604.00;10322271;28;20682;-78
2023/08/01 07:23:39;;;;;;;1.40;0.43;;;;;;;18.36;100.00;98606.09;10326805;28;20540;-76
2023/08/01 07:28:41;;;;;;;0.93;0.60;;;;;;;18.35;100.00;98610.63;10327571;28;20057;-73
2023/08/01 07:33:42;;;;;;;1.15;0.50;;;;;;;18.41;100.00;98608.13;10328327;28;20218;-76
2023/08/01 07:38:44;;;;;;;3.05;1.27;;;;;;;18.42;100.00;98599.00;10321969;28;20049;-75
2023/08/01 07:43:45;;;;;;;1.88;0.57;;;;;;;18.36;100.00;98604.19;10325780;28;20237;-74
2023/08/01 07:48:48;;;;;;;2.88;1.25;;;;;;;18.39;100.00;98611.03;10327773;28;20405;-75
2023/08/01 07:53:52;;;;;;;5.95;1.20;;;;;;;18.38;100.00;98604.81;10330380;28;20069;-75
2023/08/01 07:58:53;;;;;;;2.97;1.10;;;;;;;18.45;100.00;98625.50;10322375;28;20053;-78
2023/08/01 08:03:55;;;;;;;2.95;0.60;;;;;;;18.52;100.00;98632.50;10323247;28;20187;-75
2023/08/01 08:08:56;;;;;;;4.30;1.20;;;;;;;18.71;99.60;98644.22;10323744;28;20552;-74
2023/08/01 08:13:57;;;;;;;1.67;0.95;;;;;;;18.79;97.22;98640.44;10326640;28;20143;-74
2023/08/01 08:18:59;;;;;;;4.35;0.88;;;;;;;19.15;100.00;98651.66;10323154;28;21065;-76
2023/08/01 08:24:00;;;;;;;2.97;1.08;;;;;;;19.32;98.26;98652.78;10317027;28;20058;-75
2023/08/01 08:29:02;;;;;;;2.15;1.00;;;;;;;19.53;95.63;98664.22;10308250;28;20852;-74
2023/08/01 08:34:03;;;;;;;2.33;0.75;;;;;;;19.50;89.92;98664.66;10317869;28;20232;-75
2023/08/01 08:39:04;;;;;;;1.65;0.73;;;;;;;19.69;90.49;98665.56;10318483;28;20061;-74
2023/08/01 08:44:08;;;;;;;1.33;0.55;;;;;;;19.80;87.75;98672.13;10331735;28;21445;-80
2023/08/01 08:49:11;;;;;;;2.33;0.68;;;;;;;20.03;87.14;98675.03;10338345;28;20099;-76
2023/08/01 08:54:14;;;;;;;1.73;0.82;;;;;;;20.34;86.37;98681.31;10331604;28;20084;-77
2023/08/01 08:59:15;;;;;;;1.90;0.80;;;;;;;20.38;80.58;98671.72;10321640;28;20062;-78
2023/08/01 09:04:16;;;;;;;2.72;0.77;;;;;;;20.58;78.34;98676.06;10320213;28;20346;-74
2023/08/01 09:09:18;;;;;;;1.48;0.63;;;;;;;20.58;76.27;98682.31;10318688;28;20050;-80
2023/08/01 09:14:20;;;;;;;1.75;0.82;;;;;;;20.59;75.09;98680.41;10323621;28;20057;-77
2023/08/01 09:19:24;;;;;;;1.50;0.70;;;;;;;20.90;72.29;98663.19;10324498;28;20116;-74
2023/08/01 09:24:26;;;;;;;1.13;0.47;;;;;;;21.01;72.61;98664.28;10315641;28;20155;-75
2023/08/01 09:29:27;;;;;;;2.10;0.52;;;;;;;21.10;71.36;98676.41;10322094;28;20049;-80
2023/08/01 09:34:29;;;;;;;3.42;0.70;;;;;;;21.13;69.70;98675.13;10318911;28;20127;-75
2023/08/01 09:39:30;;;;;;;1.05;0.77;;;;;;;21.36;70.22;98671.66;10314199;28;20064;-76
2023/08/01 09:44:34;;;;;;;2.45;0.70;;;;;;;21.43;67.82;98680.50;10313900;28;20069;-75
2023/08/01 09:49:47;;;;;;;1.15;0.55;;;;;;;21.38;67.16;98664.16;10314166;28;20076;-75
2023/08/01 09:54:49;;;;;;;2.07;0.50;;;;;;;21.54;67.81;98671.63;10319634;28;20083;-80
2023/08/01 09:59:50;;;;;;;2.75;1.40;;;;;;;21.52;66.35;98665.59;10334579;28;20059;-80
2023/08/01 10:04:53;;;;;;;1.77;0.73;;;;;;;21.27;68.48;98671.19;10331391;28;20637;-73
2023/08/01 10:09:58;;;;;;;1.05;0.68;;;;;;;21.50;67.17;98678.53;10317620;28;20518;-75
2023/08/01 10:15:00;;;;;;;1.20;0.80;;;;;;;21.68;64.89;98679.53;10322362;28;20411;-74
2023/08/01 10:20:03;;;;;;;1.73;0.70;;;;;;;21.49;64.60;98682.28;10319226;28;20588;-75
2023/08/01 10:25:05;;;;;;;2.03;0.60;;;;;;;21.28;65.83;98682.81;10317267;28;20068;-74
2023/08/01 10:30:07;;;;;;;0.98;0.55;;;;;;;21.28;64.45;98693.66;10315455;28;20053;-74
2023/08/01 10:35:10;;;;;;;1.00;0.90;;;;;;;21.49;59.55;98692.28;10314715;28;20046;-75
2023/08/01 10:40:11;;;;;;;2.70;1.30;;;;;;;21.76;58.27;98686.47;10324335;28;20105;-75
2023/08/01 10:45:22;;;;;;;1.67;0.93;;;;;;;22.05;55.46;98690.09;10325220;28;20148;-74
2023/08/01 10:50:23;;;;;;;1.25;0.68;;;;;;;22.16;56.43;98691.13;10322714;28;20050;-74
2023/08/01 10:55:24;;;;;;;1.70;0.85;;;;;;;22.14;56.89;98688.66;10322198;28;20046;-74
2023/08/01 11:00:26;;;;;;;1.42;0.85;;;;;;;22.01;57.11;98695.19;10321292;28;20530;-72
2023/08/01 11:05:29;;;;;;;2.05;0.88;;;;;;;21.73;63.84;98703.19;10318987;28;20054;-74
2023/08/01 11:10:32;;;;;;;1.35;0.70;;;;;;;21.46;66.64;98706.28;10319697;28;20196;-73
2023/08/01 11:15:37;;;;;;;1.95;0.70;;;;;;;21.40;64.58;98702.63;10322197;28;20061;-72
2023/08/01 11:20:39;;;;;;;2.95;0.70;;;;;;;21.24;62.79;98706.81;10342644;28;20056;-75
2023/08/01 11:25:43;;;;;;;2.70;0.63;;;;;;;21.31;61.47;98718.34;10339365;28;20100;-73
2023/08/01 11:30:45;;;;;;;2.38;0.70;;;;;;;21.80;60.98;98710.13;10324133;28;20134;-74
2023/08/01 11:35:57;;;;;;;1.58;0.73;;;;;;;22.23;57.35;98711.66;10319929;28;20052;-73
2023/08/01 11:41:00;;;;;;;0.95;0.60;;;;;;;22.53;57.09;98707.16;10319417;28;20125;-75
2023/08/01 11:46:02;;;;;;;1.92;0.90;;;;;;;22.91;55.92;98720.13;10319784;28;20050;-73
2023/08/01 11:51:04;;;;;;;3.08;1.15;;;;;;;23.22;51.17;98726.16;10322874;28;20970;-76
2023/08/01 11:56:06;;;;;;;1.35;0.68;;;;;;;23.15;53.00;98711.94;10322980;28;20054;-73
2023/08/01 12:01:10;;;;;;;1.27;0.40;;;;;;;23.21;51.55;98718.25;10318150;28;20203;-72
2023/08/01 12:06:13;;;;;;;1.00;0.55;;;;;;;23.02;51.44;98731.19;10318615;28;20065;-73
2023/08/01 12:11:26;;;;;;;;;;;;;;;22.82;52.29;98756.84;10323275;28;20132;-74
2023/08/01 12:16:27;;;;;;;2.08;0.50;;;;;;;22.67;53.81;98773.63;10317749;28;20003;-72
2023/08/01 12:21:29;;;;;;;1.40;0.60;;;;;;;22.42;53.69;98755.72;10317521;28;20539;-74
2023/08/01 12:26:31;;;;;;;1.47;0.70;;;;;;;22.24;55.90;98743.09;10315421;28;20054;-73
2023/08/01 12:31:32;;;;;;;1.95;1.10;;;;;;;22.38;56.62;98748.31;10316648;28;20041;-72
2023/08/01 12:36:34;;;;;;;2.42;0.88;;;;;;;22.33;56.97;98764.47;10320776;28;20700;-74
2023/08/01 12:41:36;;;;;;;2.65;0.60;;;;;;;22.10;57.29;98773.38;10317112;28;20062;-73
2023/08/01 12:46:39;;;;;;;2.58;0.75;;;;;;;21.91;56.58;98767.25;10318361;28;20611;-73
2023/08/01 12:51:41;;;;;;;3.17;0.98;;;;;;;21.50;63.53;98803.06;10321570;28;20045;-75
2023/08/01 12:56:43;;;;;;;2.30;0.77;;;;;;;21.25;68.46;98799.66;10319791;28;20050;-77
2023/08/01 13:01:44;;;;;;;2.90;1.13;;;;;;;21.20;70.88;98781.38;10319431;28;20077;-73
2023/08/01 13:06:46;;;;;;;1.70;0.90;;;;;;;21.22;71.81;98787.38;10322016;28;20120;-72
2023/08/01 13:11:47;;;;;;;1.67;0.75;;;;;;;21.75;72.18;98783.09;10325363;28;20053;-72
2023/08/01 13:16:49;;;;;;;1.15;0.65;;;;;;;22.05;70.21;98776.78;10324091;28;20087;-74
2023/08/01 13:21:51;;;;;;;1.25;0.73;;;;;;;22.35;66.56;98776.72;10319971;28;20535;-73
2023/08/01 13:26:52;;;;;;;1.20;0.70;;;;;;;22.49;65.67;98788.16;10315850;28;20143;-74
2023/08/01 13:31:54;;;;;;;1.45;0.70;;;;;;;22.42;66.01;98776.59;10320744;28;20832;-73
2023/08/01 13:36:55;;;;;;;1.58;0.75;;;;;;;22.47;63.98;98768.56;10321665;28;20829;-73
2023/08/01 13:41:57;;;;;;;2.38;0.82;;;;;;;22.67;63.49;98756.50;10320859;28;20065;-71
2023/08/01 13:46:58;;;;;;;2.33;1.15;;;;;;;22.44;62.09;98781.78;10322080;28;20068;-73
2023/08/01 13:52:00;;;;;;;2.65;0.95;;;;;;;22.29;63.03;98809.31;10321554;28;20073;-73
2023/08/01 13:57:01;;;;;;;4.38;1.58;;;;;;;21.54;74.01;98862.97;10317587;28;20096;-74
2023/08/01 14:02:03;;;;;;;2.03;0.82;;;;;;;20.77;76.53;98845.34;10320304;28;20513;-70
2023/08/01 14:07:07;;;;;;;2.17;1.15;;;;;;;20.69;79.49;98839.41;10314360;28;20102;-73
2023/08/01 14:12:08;;;;;;;3.05;1.58;;;;;;;20.71;80.45;98827.31;10313321;28;20184;-74
2023/08/01 14:17:10;;;;;;;4.45;1.23;;;;;;;20.85;82.90;98830.69;10310834;28;21468;-74
2023/08/01 14:22:11;;;;;;;4.15;1.50;;;;;;;20.92;79.53;98841.44;10316528;28;21107;-72
2023/08/01 14:27:13;;;;;;;2.67;1.40;;;;;;;21.09;79.66;98842.50;10310949;28;20063;-71
2023/08/01 14:32:19;;;;;;;2.22;0.80;;;;;;;21.12;79.24;98849.31;10312197;28;20088;-76
2023/08/01 14:37:23;;;;;;;2.60;1.40;;;;;;;21.09;78.25;98838.97;10311857;28;20061;-74
2023/08/01 14:42:25;;;;;;;2.17;1.00;;;;;;;21.09;77.18;98847.91;10315590;28;20665;-73
2023/08/01 14:47:27;;;;;;;1.90;0.80;;;;;;;20.95;75.95;98839.13;10316020;28;20062;-71
2023/08/01 14:52:28;;;;;;;3.35;1.27;;;;;;;20.97;75.25;98849.69;10312842;28;20057;-74
2023/08/01 14:57:31;;;;;;;3.00;1.20;;;;;;;20.92;75.32;98853.09;10312712;28;20137;-77
2023/08/01 15:02:33;;;;;;;4.10;0.90;;;;;;;20.92;70.34;98852.28;10309303;28;21355;-74
2023/08/01 15:07:34;;;;;;;3.20;0.90;;;;;;;20.89;69.65;98860.84;10314280;28;20132;-72
2023/08/01 15:12:39;;;;;;;2.00;1.08;;;;;;;21.03;68.17;98862.31;10310637;28;20042;-73
2023/08/01 15:17:40;;;;;;;2.15;1.15;;;;;;;21.17;68.52;98861.13;10311596;28;20096;-73
2023/08/01 15:22:42;;;;;;;3.42;1.00;;;;;;;21.14;65.73;98877.81;10311308;28;20049;-74
2023/08/01 15:27:43;;;;;;;2.13;0.60;;;;;;;21.04;64.73;98876.69;10320829;28;20164;-74
2023/08/01 15:32:45;;;;;;;1.33;0.60;;;;;;;21.07;64.55;98879.75;10320382;28;20853;-73
2023/08/01 15:37:46;;;;;;;1.58;0.55;;;;;;;21.19;63.41;98880.66;10331066;28;20618;-73
2023/08/01 15:42:47;;;;;;;0.70;0.40;;;;;;;21.09;64.20;98898.47;10337176;28;21246;-76
2023/08/01 15:47:49;;;;;;;1.02;0.43;;;;;;;20.97;62.97;98896.53;10368135;28;20081;-72
2023/08/01 15:52:50;;;;;;;1.20;0.40;;;;;;;20.99;64.80;98904.41;10330934;28;20058;-75
2023/08/01 15:57:52;;;;;;;2.75;0.50;;;;;;;20.92;61.51;98903.66;10325558;28;20054;-76
2023/08/01 16:02:53;;;;;;;2.15;0.40;;;;;;;20.74;62.20;98896.34;10325704;28;20053;-74
2023/08/01 16:07:55;;;;;;;3.15;1.23;;;;;;;20.65;63.74;98896.63;10326864;28;20053;-73
2023/08/01 16:12:56;;;;;;;4.07;0.90;;;;;;;20.75;63.10;98887.19;10321448;28;20372;-73
2023/08/01 16:17:57;;;;;;;2.58;0.70;;;;;;;20.90;65.39;98892.25;10323757;28;20065;-75
2023/08/01 16:22:59;;;;;;;2.72;0.52;;;;;;;21.02;63.17;98893.97;10324566;28;20050;-73
2023/08/01 16:28:02;;;;;;;1.10;0.43;;;;;;;21.09;62.01;98896.63;10323829;28;20054;-73
2023/08/01 16:33:03;;;;;;;1.40;0.50;;;;;;;21.13;62.64;98905.91;10320850;28;20113;-73
2023/08/01 16:38:05;;;;;;;1.58;0.47;;;;;;;21.13;62.89;98895.09;10326632;28;20424;-74
2023/08/01 16:43:10;;;;;;;1.70;0.80;;;;;;;21.12;63.84;98909.69;10323910;28;20049;-71
2023/08/01 16:48:11;;;;;;;1.80;0.85;;;;;;;20.94;61.98;98893.44;10323191;28;20907;-71
2023/08/01 16:53:13;;;;;;;2.20;0.73;;;;;;;20.88;62.62;98897.84;10328600;28;20061;-74
2023/08/01 16:58:14;;;;;;;2.78;0.55;;;;;;;20.95;62.77;98908.63;10325048;28;20438;-71
2023/08/01 17:03:15;;;;;;;0.80;0.40;;;;;;;21.01;63.81;98916.66;10323746;28;20077;-69
2023/08/01 17:08:17;;;;;;;1.55;0.80;;;;;;;20.96;63.83;98921.09;10325714;28;20083;-73
2023/08/01 17:13:18;;;;;;;1.20;0.77;;;;;;;20.91;64.38;98915.53;10319203;28;20782;-72
2023/08/01 17:18:21;;;;;;;1.42;0.57;;;;;;;20.82;63.56;98909.56;10321892;28;20062;-72
2023/08/01 17:23:22;;;;;;;2.55;0.75;;;;;;;20.83;63.68;98922.03;10310438;28;21278;-73
2023/08/01 17:28:24;;;;;;;2.15;0.60;;;;;;;20.89;64.45;98926.56;10321472;28;20046;-73
2023/08/01 17:33:25;;;;;;;2.15;0.70;;;;;;;20.89;63.85;98921.16;10330068;28;20058;-70
2023/08/01 17:38:27;;;;;;;1.40;0.70;;;;;;;20.77;64.37;98931.88;10324563;28;20057;-73
2023/08/01 17:43:29;;;;;;;3.50;1.33;;;;;;;20.76;64.27;98942.91;10321931;28;20053;-71
2023/08/01 17:48:31;;;;;;;1.92;0.80;;;;;;;20.70;63.63;98944.63;10316018;28;20034;-71
2023/08/01 17:53:33;;;;;;;2.60;1.48;;;;;;;20.68;63.15;98945.91;10314563;28;22084;-72
2023/08/01 17:58:34;;;;;;;1.88;0.85;;;;;;;20.66;62.07;98944.25;10319220;28;20144;-74
2023/08/01 18:03:37;;;;;;;1.33;0.40;;;;;;;20.66;62.07;98954.25;10318947;28;20085;-72
2023/08/01 18:08:39;;;;;;;2.35;0.60;;;;;;;20.68;61.08;98962.94;10319314;28;20050;-78
2023/08/01 18:13:46;;;;;;;2.27;0.83;;;;;;;20.60;61.58;98965.91;10321858;28;20156;-76
2023/08/01 18:18:48;;;;;;;2.42;0.98;;;;;;;20.56;61.34;98975.50;10315757;28;20061;-73
2023/08/01 18:23:50;;;;;;;2.53;1.13;;;;;;;20.46;61.70;98957.06;10321925;28;20054;-72
2023/08/01 18:28:56;;;;;;;1.60;0.88;;;;;;;20.34;62.11;98956.09;10320469;28;20082;-73
2023/08/01 18:33:57;;;;;;;1.45;0.65;;;;;;;20.34;63.00;98975.84;10322103;28;20501;-72
2023/08/01 18:38:59;;;;;;;2.35;0.90;;;;;;;20.34;63.14;98973.13;10324115;28;20173;-72
2023/08/01 18:44:01;;;;;;;1.77;0.80;;;;;;;20.30;62.46;98980.03;10322214;28;20053;-71
2023/08/01 18:49:02;;;;;;;2.20;0.73;;;;;;;20.25;62.75;98983.41;10322349;28;20128;-72
2023/08/01 18:54:05;;;;;;;3.75;0.60;;;;;;;20.26;62.81;98995.84;10322901;28;20128;-71
2023/08/01 18:59:07;;;;;;;2.83;1.02;;;;;;;20.17;63.11;98988.22;10324603;28;20141;-71
2023/08/01 19:04:08;;;;;;;1.70;0.80;;;;;;;20.12;62.88;99003.22;10331074;28;20053;-69
2023/08/01 19:09:10;;;;;;;2.08;0.70;;;;;;;19.99;62.09;99014.06;10333378;28;20050;-72
2023/08/01 19:14:22;;;;;;;3.20;0.70;;;;;;;19.90;61.20;99016.19;10326895;28;20057;-71
2023/08/01 19:19:23;;;;;;;2.33;0.90;;;;;;;19.84;62.08;99032.44;10327182;28;20042;-71
2023/08/01 19:24:24;;;;;;;2.63;0.40;;;;;;;19.75;61.62;99045.31;10326557;28;20049;-73
2023/08/01 19:29:26;;;;;;;2.10;0.73;;;;;;;19.74;62.29;99039.09;10327383;28;20701;-73
2023/08/01 19:34:28;;;;;;;2.50;0.70;;;;;;;19.80;62.84;99053.63;10322063;28;20862;-72
2023/08/01 19:39:30;;;;;;;1.80;0.65;;;;;;;19.77;62.69;99054.00;10327003;28;20500;-70
2023/08/01 19:44:33;;;;;;;3.80;0.70;;;;;;;19.71;62.30;99066.50;10325371;28;20204;-73
2023/08/01 19:49:34;;;;;;;4.20;1.52;;;;;;;19.72;63.12;99067.31;10322619;28;20058;-73
2023/08/01 19:54:36;;;;;;;6.72;1.55;;;;;;;19.76;63.53;99077.50;10325528;28;20093;-72
2023/08/01 19:59:37;;;;;;;2.40;0.98;;;;;;;19.71;63.69;99085.41;10322366;28;20081;-72
2023/08/01 20:04:39;;;;;;;4.55;1.00;;;;;;;19.69;64.27;99086.66;10329172;28;20540;-71
2023/08/01 20:09:40;;;;;;;1.80;0.98;;;;;;;19.63;64.80;99085.63;10329062;28;20121;-72
2023/08/01 20:14:42;;;;;;;2.92;0.73;;;;;;;19.58;64.74;99093.53;10329022;28;20050;-74
2023/08/01 20:19:43;;;;;;;3.50;1.10;;;;;;;19.53;65.25;99096.88;10359555;28;21241;-74
2023/08/01 20:24:46;;;;;;;2.05;1.00;;;;;;;19.46;65.81;99092.53;10333177;28;20141;-75
2023/08/01 20:29:49;;;;;;;2.55;1.20;;;;;;;19.43;66.27;99097.28;10329808;28;24755;-74
2023/08/01 20:34:51;;;;;;;2.03;1.23;;;;;;;19.37;67.12;99095.41;10324739;28;21402;-73
2023/08/01 20:39:52;;;;;;;3.25;1.40;;;;;;;19.34;67.42;99100.41;10324788;28;20089;-77
2023/08/01 20:44:55;;;;;;;2.65;1.15;;;;;;;19.36;67.74;99112.63;10325463;28;20472;-74
2023/08/01 20:49:58;;;;;;;2.77;1.10;;;;;;;19.34;68.54;99092.31;10329048;28;20072;-72
2023/08/01 20:54:59;;;;;;;2.33;1.20;;;;;;;19.34;69.14;99090.44;10331046;28;20045;-73
2023/08/01 21:00:01;;;;;;;3.67;1.35;;;;;;;19.30;69.92;99096.47;10324131;28;20536;-76
2023/08/01 21:05:02;;;;;;;2.63;1.00;;;;;;;19.29;70.96;99106.44;10326814;28;20104;-71
2023/08/01 21:10:04;;;;;;;4.60;1.02;;;;;;;19.24;71.51;99098.13;10338361;28;20079;-75
2023/08/01 21:15:06;;;;;;;5.75;1.35;;;;;;;19.17;72.92;99097.28;10336679;28;20053;-73
2023/08/01 21:20:11;;;;;;;2.53;1.27;;;;;;;19.11;73.04;99088.19;10333874;28;20053;-77
2023/08/01 21:25:12;;;;;;;3.28;1.45;;;;;;;18.98;74.49;99080.09;10332533;28;20596;-74
2023/08/01 21:30:15;;;;;;;4.20;1.10;;;;;;;19.03;74.53;99097.28;10333113;28;20057;-72
2023/08/01 21:35:16;;;;;;;3.47;1.30;;;;;;;19.05;74.48;99097.94;10331054;28;20049;-75
2023/08/01 21:40:18;;;;;;;1.88;1.15;;;;;;;18.96;75.46;99091.09;10333138;28;20423;-74
2023/08/01 21:45:20;;;;;;;1.58;1.10;;;;;;;18.98;75.78;99090.88;10330960;28;20713;-73
2023/08/01 21:50:22;;;;;;;4.03;1.30;;;;;;;18.93;76.04;99094.19;10331395;28;20463;-75
2023/08/01 21:55:23;;;;;;;2.83;1.17;;;;;;;18.90;76.55;99091.91;10330978;28;20529;-73
2023/08/01 22:00:24;;;;;;;2.90;1.50;;;;;;;18.84;77.75;99085.44;10329200;28;20057;-72
2023/08/01 22:05:26;;;;;;;3.38;1.65;;;;;;;18.72;77.78;99079.00;10333269;28;20121;-75
2023/08/01 22:10:28;;;;;;;2.95;1.65;;;;;;;18.71;78.30;99075.47;10331826;28;20164;-73
2023/08/01 22:15:29;;;;;;;4.40;1.50;;;;;;;18.64;78.51;99077.31;10326910;28;20041;-75
2023/08/01 22:20:31;;;;;;;3.72;1.65;;;;;;;18.66;78.92;99077.94;10334737;28;20801;-71
2023/08/01 22:25:32;;;;;;;3.63;1.73;;;;;;;18.58;79.56;99082.69;10331292;28;20054;-74
2023/08/01 22:30:34;;;;;;;5.15;2.30;;;;;;;18.56;79.40;99085.59;10335938;28;20064;-73
2023/08/01 22:35:35;;;;;;;3.55;1.40;;;;;;;18.55;79.25;99094.69;10339294;28;20165;-73
2023/08/01 22:40:38;;;;;;;4.47;1.27;;;;;;;18.52;79.13;99098.63;10343405;28;20054;-75
2023/08/01 22:45:40;;;;;;;4.45;1.80;;;;;;;18.50;78.85;99097.19;10344555;28;20050;-74
2023/08/01 22:50:41;;;;;;;3.28;1.20;;;;;;;18.47;78.56;99097.59;10345584;28;20050;-72
2023/08/01 22:55:44;;;;;;;4.35;1.95;;;;;;;18.45;78.22;99091.56;10343332;28;20179;-75
2023/08/01 23:00:45;;;;;;;5.70;1.60;;;;;;;18.45;78.31;99092.41;10343851;28;20045;-74
2023/08/01 23:05:49;;;;;;;2.10;1.50;;;;;;;18.43;77.84;99089.06;10346860;28;20042;-72
2023/08/01 23:10:51;;;;;;;2.70;1.77;;;;;;;18.41;77.76;99093.03;10342540;28;20062;-75
2023/08/01 23:15:52;;;;;;;4.60;1.85;;;;;;;18.24;78.45;99088.00;10341743;28;20201;-73